TAP1558 GVSV-LPPT
Flight info
| Callsign | TAP1558 |
|---|---|
| Flight time | N/A |
| Altitude | 37000 |
| Route | NEMDO1U NEMDO UW43 IPERA N873 GDV N858 VASTO DCT BAROK DCT VATZI |
| Aircraft | A20N/M-SDE2E3FGHIRWXY/LB1 |
Departure
| Time | 2026-04-17 03:01 |
|---|---|
| Airport | Cesaria Evora International Airport (GVSV) |
Arrival
| Time | N/A |
|---|---|
| Airport | Lisbon Humberto Delgado Airport (LPPT) |
| Time | Latitude | Longitude | Altitude | Speed | Heading |
|---|---|---|---|---|---|
| 2026-04-17 02:34 | 16.83622 | -25.05407 | 76 ft | 0 kts | 124° |
| 2026-04-17 02:56 | 16.83619 | -25.05403 | 76 ft | 2 kts | 124° |
| 2026-04-17 02:57 | 16.83591 | -25.05394 | 76 ft | 7 kts | 188° |
| 2026-04-17 02:57 | 16.83542 | -25.05437 | 76 ft | 12 kts | 238° |
| 2026-04-17 02:57 | 16.83493 | -25.05519 | 76 ft | 13 kts | 238° |
| 2026-04-17 02:57 | 16.83440 | -25.05606 | 76 ft | 14 kts | 237° |
| 2026-04-17 02:58 | 16.83384 | -25.05695 | 76 ft | 14 kts | 238° |
| 2026-04-17 02:58 | 16.83328 | -25.05788 | 76 ft | 15 kts | 238° |
| 2026-04-17 02:58 | 16.83270 | -25.05884 | 76 ft | 15 kts | 238° |
| 2026-04-17 02:58 | 16.83210 | -25.05981 | 76 ft | 16 kts | 237° |
| 2026-04-17 02:59 | 16.83149 | -25.06080 | 76 ft | 16 kts | 238° |
| 2026-04-17 02:59 | 16.83088 | -25.06182 | 77 ft | 16 kts | 238° |
| 2026-04-17 02:59 | 16.83026 | -25.06284 | 77 ft | 16 kts | 237° |
| 2026-04-17 02:59 | 16.82942 | -25.06364 | 77 ft | 16 kts | 195° |
| 2026-04-17 03:00 | 16.82840 | -25.06331 | 76 ft | 15 kts | 133° |
| 2026-04-17 03:00 | 16.82831 | -25.06229 | 76 ft | 14 kts | 60° |
| 2026-04-17 03:00 | 16.82873 | -25.06162 | 76 ft | 0 kts | 51° |
| 2026-04-17 03:00 | 16.82875 | -25.06158 | 76 ft | 3 kts | 51° |
| 2026-04-17 03:01 | 16.83035 | -25.05932 | 76 ft | 75 kts | 54° |
| 2026-04-17 03:01 | 16.83485 | -25.05299 | 76 ft | 136 kts | 53° |
| 2026-04-17 03:01 | 16.84098 | -25.04435 | 440 ft | 152 kts | 53° |
| 2026-04-17 03:01 | 16.84721 | -25.03548 | 1012 ft | 155 kts | 52° |
| 2026-04-17 03:02 | 16.85366 | -25.02630 | 1630 ft | 158 kts | 51° |
| 2026-04-17 03:02 | 16.86011 | -25.01718 | 2225 ft | 156 kts | 51° |
| 2026-04-17 03:02 | 16.86703 | -25.00825 | 2609 ft | 166 kts | 47° |
| 2026-04-17 03:02 | 16.87505 | -24.99892 | 2916 ft | 181 kts | 47° |
| 2026-04-17 03:03 | 16.88405 | -24.98850 | 3231 ft | 199 kts | 47° |
| 2026-04-17 03:03 | 16.89375 | -24.97713 | 3498 ft | 221 kts | 48° |
| 2026-04-17 03:03 | 16.90433 | -24.96465 | 3857 ft | 241 kts | 48° |
| 2026-04-17 03:03 | 16.91596 | -24.95087 | 4287 ft | 259 kts | 48° |
| 2026-04-17 03:04 | 16.92814 | -24.93638 | 4800 ft | 272 kts | 48° |
| 2026-04-17 03:04 | 16.94075 | -24.92136 | 5478 ft | 278 kts | 48° |
| 2026-04-17 03:04 | 16.95357 | -24.90610 | 6165 ft | 283 kts | 48° |
| 2026-04-17 03:04 | 16.96664 | -24.89052 | 6836 ft | 287 kts | 48° |
| 2026-04-17 03:05 | 16.97978 | -24.87484 | 7500 ft | 292 kts | 48° |
| 2026-04-17 03:05 | 16.99319 | -24.85883 | 8180 ft | 295 kts | 48° |
| 2026-04-17 03:05 | 17.00676 | -24.84261 | 8828 ft | 300 kts | 48° |